El-djazair II — 7TBR — position and weather

sailwx.info

Track history (hours):
 
Tides and Currents Weather Stations Pressure Air Temp Water Temp Dewpoint Dewpoint Depression Visibility Wind Speed Wind Dir Waves Ship Positions

El-djazair II

Last reported at 2016-Feb-13 02:23 UTC. Time now 2016-Feb-13 02:36 UTC.
Position N 43°18' E 005°22'.

Length 146 m; draft 6.3 m.

Type: Passenger vessel. MMSI: 605026190.

Date/timePositionNaut miles runAvg speedWind from/ knotsBaromVisibWave heightAir tempDewpointWater temp
2016-Feb-13 02:23N 43°18' E 005°22'0 0.0
2016-Feb-13 01:32N 43°18' E 005°22'0 0.0
2016-Feb-13 00:26N 43°18' E 005°22'0 0.0
2016-Feb-12 23:23N 43°18' E 005°22'0 0.0
2016-Feb-12 21:05N 43°18' E 005°22'0 0.0
2016-Feb-12 20:32N 43°18' E 005°22'0 0.0
2016-Feb-12 19:29N 43°18' E 005°22'0 0.0
2016-Feb-12 17:26N 43°18' E 005°22'0 0.0
2016-Feb-12 16:05N 43°18' E 005°22'0 0.0
2016-Feb-12 15:05N 43°18' E 005°22'0 0.0
2016-Feb-12 13:23N 43°18' E 005°22'0 0.0
2016-Feb-12 12:29N 43°18' E 005°22'0 0.0
2016-Feb-12 10:25N 43°18' E 005°22'0 0.0
2016-Feb-12 09:28N 43°18' E 005°22'0 0.0
2016-Feb-12 08:28N 43°18' E 005°22'0 0.1
2016-Feb-12 07:33N 43°18' E 005°22'1514.7
2016-Feb-12 06:31N 43°03' E 005°21'268 5.2
2016-Feb-10 03:15N 38°47' E 003°36'1520.2
2016-Feb-10 02:32N 39°01' E 003°35'2420.2
2016-Feb-10 01:20N 39°25' E 003°35'2221.1
2016-Feb-10 00:19N 39°47' E 003°36'2521.9
2016-Feb-09 23:11N 40°08' E 003°18'1218.9
2016-Feb-09 22:34N 40°19' E 003°16'2019.7
2016-Feb-09 21:33N 40°39' E 003°20'2020.4
2016-Feb-09 20:33N 40°59' E 003°25'2121.1
2016-Feb-09 19:32N 41°20' E 003°30'2221.6
2016-Feb-09 18:30N 41°42' E 003°35'4522.2
2016-Feb-09 16:28N 42°27' E 003°44'2421.3
2016-Feb-09 15:22N 42°41' E 004°09'1721.5
2016-Feb-09 14:33N 42°51' E 004°29'2121.5
2016-Feb-09 13:33N 43°03' E 004°53'2121.3
2016-Feb-09 12:33N 43°15' E 005°17'5 4.4
2016-Feb-09 11:30N 43°18' E 005°22'0 0.0
2016-Feb-09 10:30N 43°18' E 005°22'0 0.0
2016-Feb-09 09:33N 43°18' E 005°22'0 0.0
2016-Feb-09 08:21N 43°18' E 005°22'0 0.0
2016-Feb-09 01:33N 43°18' E 005°22'0 0.0
2016-Feb-09 00:33N 43°18' E 005°22'0 0.0
2016-Feb-08 23:33N 43°18' E 005°22'0 0.0
2016-Feb-08 22:30N 43°18' E 005°22'0 0.0
2016-Feb-08 21:27N 43°18' E 005°22'0 0.0
2016-Feb-08 20:33N 43°18' E 005°22'0 0.0
2016-Feb-08 19:33N 43°18' E 005°22'0 0.0
2016-Feb-08 18:33N 43°18' E 005°22'0 0.0
2016-Feb-08 17:33N 43°18' E 005°22'0 0.0
2016-Feb-08 16:33N 43°18' E 005°22'0 0.0
2016-Feb-08 15:33N 43°18' E 005°22'3 2.9
2016-Feb-08 14:33N 43°16' E 005°19'2121.3
2016-Feb-08 13:33N 42°58' E 005°04'2222.3
2016-Feb-08 12:33N 42°39' E 004°48'2322.7
2016-Feb-08 11:33N 42°20' E 004°32'2222.4
2016-Feb-08 10:33N 42°01' E 004°16'8922.3
2016-Feb-08 06:33N 40°46' E 003°11'2222.1
2016-Feb-08 05:33N 40°27' E 002°55'2222.0
2016-Feb-08 04:33N 40°09' E 002°40'2222.2
2016-Feb-08 03:33N 39°50' E 002°24'2221.6
2016-Feb-08 02:33N 39°31' E 002°10'2222.0
2016-Feb-08 01:33N 39°11' E 001°59'2222.1
2016-Feb-08 00:33N 38°51' E 001°48'221 6.1
2016-Feb-06 12:15N 35°43' W 000°39'88 9.0
2016-Feb-06 02:26N 37°03' E 000°07'1719.5
2016-Feb-06 01:33N 37°19' E 000°15'25 1.1
2016-Feb-05 03:13N 37°41' E 000°01'1720.1
2016-Feb-05 02:22N 37°24' W 000°05'105 2.2
2016-Feb-03 03:04N 35°43' W 000°39'  
Track history (hours):
 
Tides and Currents Weather Stations Pressure Air Temp Water Temp Dewpoint Dewpoint Depression Visibility Wind Speed Wind Dir Waves Ship Positions

El-djazair II

Last reported at 2016-Feb-13 02:23 UTC. Time now 2016-Feb-13 02:36 UTC.
Position N 43°18' E 005°22'.

Length 146 m; draft 6.3 m.

Type: Passenger vessel. MMSI: 605026190.

Date/timePositionNaut miles runAvg speedWind from/ knotsBaromVisibWave heightAir tempDewpointWater temp
2016-Feb-13 02:23N 43°18' E 005°22'0 0.0
2016-Feb-13 01:32N 43°18' E 005°22'0 0.0
2016-Feb-13 00:26N 43°18' E 005°22'0 0.0
2016-Feb-12 23:23N 43°18' E 005°22'0 0.0
2016-Feb-12 21:05N 43°18' E 005°22'0 0.0
2016-Feb-12 20:32N 43°18' E 005°22'0 0.0
2016-Feb-12 19:29N 43°18' E 005°22'0 0.0
2016-Feb-12 17:26N 43°18' E 005°22'0 0.0
2016-Feb-12 16:05N 43°18' E 005°22'0 0.0
2016-Feb-12 15:05N 43°18' E 005°22'0 0.0
2016-Feb-12 13:23N 43°18' E 005°22'0 0.0
2016-Feb-12 12:29N 43°18' E 005°22'0 0.0
2016-Feb-12 10:25N 43°18' E 005°22'0 0.0
2016-Feb-12 09:28N 43°18' E 005°22'0 0.0
2016-Feb-12 08:28N 43°18' E 005°22'0 0.1
2016-Feb-12 07:33N 43°18' E 005°22'1514.7
2016-Feb-12 06:31N 43°03' E 005°21'268 5.2
2016-Feb-10 03:15N 38°47' E 003°36'1520.2
2016-Feb-10 02:32N 39°01' E 003°35'2420.2
2016-Feb-10 01:20N 39°25' E 003°35'2221.1
2016-Feb-10 00:19N 39°47' E 003°36'2521.9
2016-Feb-09 23:11N 40°08' E 003°18'1218.9
2016-Feb-09 22:34N 40°19' E 003°16'2019.7
2016-Feb-09 21:33N 40°39' E 003°20'2020.4
2016-Feb-09 20:33N 40°59' E 003°25'2121.1
2016-Feb-09 19:32N 41°20' E 003°30'2221.6
2016-Feb-09 18:30N 41°42' E 003°35'4522.2
2016-Feb-09 16:28N 42°27' E 003°44'2421.3
2016-Feb-09 15:22N 42°41' E 004°09'1721.5
2016-Feb-09 14:33N 42°51' E 004°29'2121.5
2016-Feb-09 13:33N 43°03' E 004°53'2121.3
2016-Feb-09 12:33N 43°15' E 005°17'5 4.4
2016-Feb-09 11:30N 43°18' E 005°22'0 0.0
2016-Feb-09 10:30N 43°18' E 005°22'0 0.0
2016-Feb-09 09:33N 43°18' E 005°22'0 0.0
2016-Feb-09 08:21N 43°18' E 005°22'0 0.0
2016-Feb-09 01:33N 43°18' E 005°22'0 0.0
2016-Feb-09 00:33N 43°18' E 005°22'0 0.0
2016-Feb-08 23:33N 43°18' E 005°22'0 0.0
2016-Feb-08 22:30N 43°18' E 005°22'0 0.0
2016-Feb-08 21:27N 43°18' E 005°22'0 0.0
2016-Feb-08 20:33N 43°18' E 005°22'0 0.0
2016-Feb-08 19:33N 43°18' E 005°22'0 0.0
2016-Feb-08 18:33N 43°18' E 005°22'0 0.0
2016-Feb-08 17:33N 43°18' E 005°22'0 0.0
2016-Feb-08 16:33N 43°18' E 005°22'0 0.0
2016-Feb-08 15:33N 43°18' E 005°22'3 2.9
2016-Feb-08 14:33N 43°16' E 005°19'2121.3
2016-Feb-08 13:33N 42°58' E 005°04'2222.3
2016-Feb-08 12:33N 42°39' E 004°48'2322.7
2016-Feb-08 11:33N 42°20' E 004°32'2222.4
2016-Feb-08 10:33N 42°01' E 004°16'8922.3
2016-Feb-08 06:33N 40°46' E 003°11'2222.1
2016-Feb-08 05:33N 40°27' E 002°55'2222.0
2016-Feb-08 04:33N 40°09' E 002°40'2222.2
2016-Feb-08 03:33N 39°50' E 002°24'2221.6
2016-Feb-08 02:33N 39°31' E 002°10'2222.0
2016-Feb-08 01:33N 39°11' E 001°59'2222.1
2016-Feb-08 00:33N 38°51' E 001°48'221 6.1
2016-Feb-06 12:15N 35°43' W 000°39'88 9.0
2016-Feb-06 02:26N 37°03' E 000°07'1719.5
2016-Feb-06 01:33N 37°19' E 000°15'25 1.1
2016-Feb-05 03:13N 37°41' E 000°01'1720.1
2016-Feb-05 02:22N 37°24' W 000°05'105 2.2
2016-Feb-03 03:04N 35°43' W 000°39'  

Dump ship's entire track history